createdAt,value
2018-03-28T00:01:37.390Z,96994.61
2018-03-28T00:04:05.658Z,96992.25
2018-03-28T00:06:33.931Z,96981.91
2018-03-28T00:09:02.193Z,97000.92
2018-03-28T00:11:30.526Z,96990.97
2018-03-28T00:13:58.825Z,97004.77
2018-03-28T00:16:27.897Z,96995.40
2018-03-28T00:18:57.077Z,96992.75
2018-03-28T00:21:25.485Z,96994.08
2018-03-28T00:23:54.224Z,96985.97
2018-03-28T00:26:22.501Z,96991.58
2018-03-28T00:28:50.782Z,96978.62
2018-03-28T00:31:19.028Z,96979.32
2018-03-28T00:33:47.302Z,96972.23
2018-03-28T00:36:16.320Z,96972.17
2018-03-28T00:38:44.610Z,96982.46
2018-03-28T00:41:12.908Z,96977.38
2018-03-28T00:43:41.280Z,96974.97
2018-03-28T00:46:10.400Z,96976.75
2018-03-28T00:48:39.408Z,96982.30
2018-03-28T00:51:26.297Z,96980.03
2018-03-28T00:53:55.358Z,96977.27
2018-03-28T00:56:23.749Z,96990.26
2018-03-28T00:58:52.014Z,96981.91
2018-03-28T01:01:20.269Z,96983.37
2018-03-28T01:03:48.532Z,96983.55
2018-03-28T01:06:23.110Z,96984.06
2018-03-28T01:08:52.137Z,96986.55
2018-03-28T01:11:20.401Z,96991.69
2018-03-28T01:13:49.457Z,96972.98
2018-03-28T01:16:17.698Z,96973.91
2018-03-28T01:18:46.764Z,96974.96
2018-03-28T01:21:15.021Z,96965.58
2018-03-28T01:23:43.358Z,96963.34
2018-03-28T01:26:11.617Z,96967.11
2018-03-28T01:28:39.891Z,96983.66
2018-03-28T01:31:08.142Z,96967.11
2018-03-28T01:33:36.406Z,96962.79
2018-03-28T01:36:04.657Z,96965.64
2018-03-28T01:38:32.911Z,96968.70
2018-03-28T01:41:01.165Z,96960.64
2018-03-28T01:43:29.497Z,96974.87
2018-03-28T01:45:58.597Z,96966.71
2018-03-28T01:48:27.648Z,96968.06
2018-03-28T01:50:56.006Z,96959.52
2018-03-28T01:53:24.366Z,96957.80
2018-03-28T01:55:52.630Z,96959.91
2018-03-28T01:58:20.935Z,96961.97
2018-03-28T02:00:49.211Z,96958.15
2018-03-28T02:03:17.465Z,96955.88
2018-03-28T02:05:45.740Z,96950.16
2018-03-28T02:08:14.859Z,96952.02
2018-03-28T02:10:43.193Z,96957.41
2018-03-28T02:13:12.637Z,96957.30
2018-03-28T02:15:40.929Z,96958.12
2018-03-28T02:18:09.179Z,96948.09
2018-03-28T02:20:37.468Z,96956.00
2018-03-28T02:23:05.725Z,96957.40
2018-03-28T02:25:33.994Z,96958.89
2018-03-28T02:28:02.256Z,96959.61
2018-03-28T02:30:30.550Z,96959.13
2018-03-28T02:32:58.832Z,96952.37
2018-03-28T02:35:27.148Z,96952.56
2018-03-28T02:37:56.356Z,96940.22
2018-03-28T02:40:25.968Z,96937.05
2018-03-28T02:42:55.049Z,96944.97
2018-03-28T02:45:23.348Z,96944.48
2018-03-28T02:47:51.597Z,96944.04
2018-03-28T02:50:19.900Z,96940.02
2018-03-28T02:52:48.145Z,96944.19
2018-03-28T02:55:16.417Z,96943.63
2018-03-28T02:57:44.710Z,96952.69
2018-03-28T03:00:13.030Z,96957.50
2018-03-28T03:02:41.320Z,96953.77
2018-03-28T03:05:10.352Z,96961.30
2018-03-28T03:07:38.628Z,96952.86
2018-03-28T03:10:06.894Z,96958.77
2018-03-28T03:12:35.148Z,96960.95
2018-03-28T03:15:03.425Z,96958.83
2018-03-28T03:17:31.684Z,96968.13
2018-03-28T03:19:59.991Z,96967.34
2018-03-28T03:22:28.390Z,96973.13
2018-03-28T03:24:56.885Z,96975.15
2018-03-28T03:27:25.197Z,96968.72
2018-03-28T03:29:54.405Z,96968.20
2018-03-28T03:32:22.679Z,96956.25
2018-03-28T03:34:50.934Z,96968.76
2018-03-28T03:37:20.042Z,96967.83
2018-03-28T03:39:48.299Z,96972.42
2018-03-28T03:42:16.556Z,96974.67
2018-03-28T03:44:44.832Z,96982.52
2018-03-28T03:47:13.102Z,96978.50
2018-03-28T03:49:41.383Z,96977.96
2018-03-28T03:52:09.656Z,96988.05
2018-03-28T03:54:38.677Z,96990.00
2018-03-28T03:57:07.703Z,96984.16
2018-03-28T03:59:35.963Z,96986.39
2018-03-28T04:02:05.098Z,96988.80
2018-03-28T04:04:33.449Z,96986.78
2018-03-28T04:07:01.776Z,96985.80
2018-03-28T04:09:30.087Z,96975.20
2018-03-28T04:11:58.439Z,96980.69
2018-03-28T04:14:27.632Z,96983.91
2018-03-28T04:16:55.932Z,96986.23
2018-03-28T04:19:25.092Z,96978.92
2018-03-28T04:21:53.377Z,96989.11
2018-03-28T04:24:21.640Z,96989.38
2018-03-28T04:26:49.948Z,96993.24
2018-03-28T04:29:18.202Z,96985.41
2018-03-28T04:31:47.240Z,96992.03
2018-03-28T04:34:15.513Z,96986.56
2018-03-28T04:36:43.765Z,96998.04
2018-03-28T04:39:12.045Z,96998.38
2018-03-28T04:41:40.300Z,97001.31
2018-03-28T04:44:08.571Z,97002.18
2018-03-28T04:46:36.850Z,97012.28
2018-03-28T04:49:06.464Z,97014.17
2018-03-28T04:51:35.468Z,97008.59
2018-03-28T04:54:05.088Z,97007.55
2018-03-28T04:56:34.108Z,97001.52
2018-03-28T04:59:03.518Z,97011.02
2018-03-28T05:01:32.544Z,97002.66
2018-03-28T05:04:00.820Z,97005.03
2018-03-28T05:06:29.926Z,97007.22
2018-03-28T05:08:59.017Z,97008.15
2018-03-28T05:11:28.097Z,97000.20
2018-03-28T05:13:56.506Z,96998.41
2018-03-28T05:16:24.805Z,97005.90
2018-03-28T05:18:53.118Z,97001.98
2018-03-28T05:21:21.428Z,97010.46
2018-03-28T05:23:49.695Z,97006.99
2018-03-28T05:26:18.724Z,97005.30
2018-03-28T05:28:46.980Z,97006.77
2018-03-28T05:31:16.014Z,97003.23
2018-03-28T05:33:44.304Z,96998.35
2018-03-28T05:36:12.544Z,97000.31
2018-03-28T05:38:40.812Z,97006.19
2018-03-28T05:41:09.065Z,96989.97
2018-03-28T05:43:37.336Z,96995.41
2018-03-28T05:46:05.592Z,96995.34
2018-03-28T05:48:33.840Z,97001.34
2018-03-28T05:51:02.104Z,96999.38
2018-03-28T05:53:31.151Z,96998.06
2018-03-28T05:55:59.484Z,96994.25
2018-03-28T05:58:27.779Z,97008.88
2018-03-28T06:00:56.976Z,96999.70
2018-03-28T06:03:25.355Z,96999.66
2018-03-28T06:05:54.613Z,96997.64
2018-03-28T06:08:22.869Z,96998.78
2018-03-28T06:10:51.179Z,96999.42
2018-03-28T06:13:20.568Z,96992.36
2018-03-28T06:15:48.959Z,96997.50
2018-03-28T06:18:17.255Z,96998.09
2018-03-28T06:20:45.529Z,96990.65
2018-03-28T06:23:13.783Z,96998.91
2018-03-28T06:25:42.065Z,96988.45
2018-03-28T06:28:10.336Z,96992.63
2018-03-28T06:30:39.415Z,96989.73
2018-03-28T06:33:08.778Z,96985.06
2018-03-28T06:35:37.049Z,96991.91
2018-03-28T06:38:06.076Z,96992.40
2018-03-28T06:40:34.350Z,96999.32
2018-03-28T06:43:03.369Z,96990.72
2018-03-28T06:45:31.729Z,96997.75
2018-03-28T06:48:00.770Z,96998.20
2018-03-28T06:50:29.073Z,96993.93
2018-03-28T06:52:57.432Z,96994.64
2018-03-28T06:57:59.464Z,96993.03
2018-03-28T07:00:27.773Z,96993.88
2018-03-28T07:02:56.098Z,96993.16
2018-03-28T07:05:24.402Z,96997.87
2018-03-28T07:07:53.445Z,96989.67
2018-03-28T07:10:21.746Z,97001.66
2018-03-28T07:12:50.013Z,96995.18
2018-03-28T07:15:18.303Z,96996.89
2018-03-28T07:17:46.582Z,97000.16
2018-03-28T07:20:14.877Z,97003.25
2018-03-28T07:22:43.145Z,96995.85
2018-03-28T07:25:12.540Z,97002.00
2018-03-28T07:27:40.821Z,96998.96
2018-03-28T07:30:09.072Z,96999.06
2018-03-28T07:32:37.424Z,97002.36
2018-03-28T07:35:05.672Z,96997.16
2018-03-28T07:37:33.948Z,96989.87
2018-03-28T07:40:02.230Z,96997.99
2018-03-28T07:42:30.515Z,96999.35
2018-03-28T07:44:58.949Z,97001.08
2018-03-28T07:47:27.353Z,97008.42
2018-03-28T07:49:55.640Z,96996.18
2018-03-28T07:52:25.464Z,97009.62
2018-03-28T07:54:53.744Z,97005.25
2018-03-28T07:57:22.904Z,96999.34
2018-03-28T07:59:51.202Z,97000.92
2018-03-28T08:02:19.492Z,96996.65
2018-03-28T08:04:47.772Z,96997.24
2018-03-28T08:07:16.045Z,96993.14
2018-03-28T08:09:45.068Z,96999.92
2018-03-28T08:12:13.363Z,96997.91
2018-03-28T08:14:41.652Z,96989.80
2018-03-28T08:17:09.955Z,96988.97
2018-03-28T08:19:38.220Z,96987.48
2018-03-28T08:22:06.494Z,96997.59
2018-03-28T08:24:35.726Z,96992.13
2018-03-28T08:27:04.020Z,96991.91
2018-03-28T08:29:32.285Z,96977.75
2018-03-28T08:32:01.340Z,96983.70
2018-03-28T08:34:29.718Z,96974.38
2018-03-28T08:36:58.053Z,96966.89
2018-03-28T08:39:26.404Z,96960.66
2018-03-28T08:41:54.844Z,96966.27
2018-03-28T08:44:23.220Z,96958.99
2018-03-28T08:46:52.219Z,96966.19
2018-03-28T08:49:20.497Z,96961.41
2018-03-28T08:51:48.872Z,96960.39
2018-03-28T08:54:18.382Z,96969.85
2018-03-28T08:56:48.371Z,96969.57
2018-03-28T08:59:16.685Z,96972.50
2018-03-28T09:01:45.756Z,96963.17
2018-03-28T09:04:14.074Z,96955.88
2018-03-28T09:06:43.135Z,96963.84
2018-03-28T09:09:12.190Z,96958.28
2018-03-28T09:11:41.213Z,96955.61
2018-03-28T09:14:10.234Z,96955.47
2018-03-28T09:16:38.491Z,96954.39
2018-03-28T09:19:07.522Z,96952.80
2018-03-28T09:21:35.778Z,96955.33
2018-03-28T09:24:04.074Z,96950.26
2018-03-28T09:26:32.331Z,96956.25
2018-03-28T09:29:00.662Z,96968.09
2018-03-28T09:31:30.267Z,96951.61
2018-03-28T09:33:58.535Z,96943.34
2018-03-28T09:36:27.578Z,96933.72
2018-03-28T09:38:56.676Z,96935.26
2018-03-28T09:41:24.992Z,96926.03
2018-03-28T09:43:54.817Z,96939.16
2018-03-28T09:46:23.115Z,96927.81
2018-03-28T09:48:52.241Z,96922.54
2018-03-28T09:51:21.276Z,96913.20
2018-03-28T09:53:49.563Z,96914.69
2018-03-28T09:56:17.930Z,96910.89
2018-03-28T09:58:46.232Z,96909.15
2018-03-28T10:01:20.070Z,96910.27
2018-03-28T10:03:50.135Z,96923.11
2018-03-28T10:06:19.363Z,96910.50
2018-03-28T10:08:48.698Z,96909.18
2018-03-28T10:11:16.774Z,96896.04
2018-03-28T10:13:45.181Z,96905.34
2018-03-28T10:16:13.448Z,96896.20
2018-03-28T10:18:41.713Z,96890.87
2018-03-28T10:21:10.797Z,96888.35
2018-03-28T10:23:39.148Z,96881.54
2018-03-28T10:26:07.436Z,96876.70
2018-03-28T10:28:35.702Z,96863.30
2018-03-28T10:31:05.484Z,96877.11
2018-03-28T10:33:33.755Z,96863.97
2018-03-28T10:36:02.055Z,96868.05
2018-03-28T10:38:30.414Z,96860.87
2018-03-28T10:41:00.101Z,96860.02
2018-03-28T10:43:29.158Z,96860.84
2018-03-28T10:45:57.505Z,96848.91
2018-03-28T10:48:25.847Z,96847.95
2018-03-28T10:50:54.155Z,96852.57
2018-03-28T10:53:22.420Z,96835.14
2018-03-28T10:55:50.795Z,96840.36
2018-03-28T10:58:19.084Z,96829.80
2018-03-28T11:00:47.430Z,96835.03
2018-03-28T11:03:15.730Z,96831.23
2018-03-28T11:05:44.800Z,96824.34
2018-03-28T11:08:13.057Z,96807.15
2018-03-28T11:10:41.400Z,96808.42
2018-03-28T11:13:09.861Z,96813.69
2018-03-28T11:15:38.270Z,96805.10
2018-03-28T11:18:06.628Z,96800.75
2018-03-28T11:20:34.916Z,96800.21
2018-03-28T11:23:03.176Z,96794.08
2018-03-28T11:25:31.483Z,96799.52
2018-03-28T11:27:59.802Z,96793.42
2018-03-28T11:30:28.259Z,96798.25
2018-03-28T11:32:57.340Z,96789.22
2018-03-28T11:35:26.830Z,96791.80
2018-03-28T11:37:55.256Z,96790.02
2018-03-28T11:40:24.318Z,96781.08
2018-03-28T11:42:52.588Z,96777.77
2018-03-28T11:45:20.881Z,96786.42
2018-03-28T11:47:49.208Z,96778.92
2018-03-28T11:50:17.500Z,96769.58
2018-03-28T11:52:45.787Z,96770.02
2018-03-28T11:55:14.061Z,96774.63
2018-03-28T11:57:42.449Z,96769.21
2018-03-28T12:00:10.735Z,96761.95
2018-03-28T12:02:39.012Z,96759.53
2018-03-28T12:05:07.292Z,96743.88
2018-03-28T12:07:35.588Z,96749.01
2018-03-28T12:10:03.964Z,96754.60
2018-03-28T12:12:32.241Z,96742.39
2018-03-28T12:15:01.315Z,96738.68
2018-03-28T12:17:29.631Z,96742.52
2018-03-28T12:19:58.715Z,96730.59
2018-03-28T12:22:27.075Z,96729.42
2018-03-28T12:24:55.392Z,96714.16
2018-03-28T12:27:24.483Z,96719.11
2018-03-28T12:29:52.796Z,96713.56
2018-03-28T12:32:21.082Z,96703.49
2018-03-28T12:34:49.352Z,96697.19
2018-03-28T12:37:17.676Z,96689.42
2018-03-28T12:39:45.964Z,96690.55
2018-03-28T12:42:14.275Z,96678.27
2018-03-28T12:44:42.587Z,96679.99
2018-03-28T12:47:10.887Z,96667.86
2018-03-28T12:49:40.058Z,96668.93
2018-03-28T12:52:08.311Z,96660.78
2018-03-28T12:54:36.595Z,96655.69
2018-03-28T12:57:04.887Z,96652.09
2018-03-28T12:59:33.166Z,96654.53
2018-03-28T13:02:01.452Z,96644.39
2018-03-28T13:04:29.760Z,96650.72
2018-03-28T13:06:58.041Z,96641.86
2018-03-28T13:09:26.442Z,96644.71
2018-03-28T13:11:54.798Z,96636.98
2018-03-28T13:14:23.110Z,96639.70
2018-03-28T13:16:51.404Z,96632.47
2018-03-28T13:19:19.704Z,96620.92
2018-03-28T13:21:47.982Z,96620.06
2018-03-28T13:24:16.312Z,96613.02
2018-03-28T13:26:45.384Z,96613.02
2018-03-28T13:29:13.680Z,96594.73
2018-03-28T13:31:41.958Z,96594.92
2018-03-28T13:34:10.231Z,96593.87
2018-03-28T13:36:39.293Z,96590.06
2018-03-28T13:39:07.576Z,96580.84
2018-03-28T13:41:35.852Z,96586.92
2018-03-28T13:44:04.145Z,96573.73
2018-03-28T13:46:32.419Z,96572.61
2018-03-28T13:49:00.742Z,96578.84
2018-03-28T13:51:30.174Z,96561.86
2018-03-28T13:53:59.298Z,96558.29
2018-03-28T13:56:27.598Z,96559.91
2018-03-28T13:58:55.941Z,96557.84
2018-03-28T14:01:25.470Z,96550.11
2018-03-28T14:03:54.594Z,96548.80
2018-03-28T14:06:23.768Z,96542.15
2018-03-28T14:08:52.097Z,96541.50
2018-03-28T14:11:20.365Z,96533.10
2018-03-28T14:13:48.657Z,96521.36
2018-03-28T14:16:17.714Z,96523.74
2018-03-28T14:18:45.999Z,96518.26
2018-03-28T14:21:14.364Z,96520.09
2018-03-28T14:23:42.677Z,96512.14
2018-03-28T14:26:10.971Z,96508.80
2018-03-28T14:28:39.231Z,96498.17
2018-03-28T14:31:08.301Z,96496.47
2018-03-28T14:33:36.604Z,96503.66
2018-03-28T14:36:04.954Z,96489.50
2018-03-28T14:38:33.213Z,96481.68
2018-03-28T14:41:01.501Z,96481.77
2018-03-28T14:43:29.798Z,96467.06
2018-03-28T14:45:58.197Z,96467.16
2018-03-28T14:48:26.531Z,96455.84
2018-03-28T14:50:54.913Z,96450.79
2018-03-28T14:53:23.195Z,96445.28
2018-03-28T14:55:51.566Z,96443.56
2018-03-28T14:58:19.841Z,96426.72
2018-03-28T15:00:48.133Z,96424.86
2018-03-28T15:03:16.417Z,96420.47
2018-03-28T15:05:44.744Z,96404.25
2018-03-28T15:08:13.033Z,96415.50
2018-03-28T15:10:42.132Z,96406.33
2018-03-28T15:13:10.420Z,96397.99
2018-03-28T15:15:39.468Z,96395.50
2018-03-28T15:18:09.120Z,96393.11
2018-03-28T15:20:38.172Z,96391.20
2018-03-28T15:23:06.460Z,96391.73
2018-03-28T15:25:34.836Z,96392.41
2018-03-28T15:28:03.091Z,96380.02
2018-03-28T15:30:31.414Z,96376.34
2018-03-28T15:32:59.754Z,96371.81
2018-03-28T15:35:28.054Z,96364.53
2018-03-28T15:37:57.230Z,96374.65
2018-03-28T15:40:25.613Z,96363.11
2018-03-28T15:42:53.923Z,96362.84
2018-03-28T15:45:22.195Z,96355.79
2018-03-28T15:47:50.575Z,96355.83
2018-03-28T15:50:18.848Z,96355.56
2018-03-28T15:52:47.176Z,96343.75
2018-03-28T15:55:15.494Z,96340.75
2018-03-28T15:57:44.602Z,96337.78
2018-03-28T16:00:13.255Z,96327.48
2018-03-28T16:02:41.535Z,96332.84
2018-03-28T16:05:10.639Z,96327.74
2018-03-28T16:07:38.945Z,96321.93
2018-03-28T16:10:07.217Z,96314.80
2018-03-28T16:12:35.519Z,96309.95
2018-03-28T16:15:03.797Z,96300.20
2018-03-28T16:17:32.071Z,96301.34
2018-03-28T16:20:00.382Z,96286.45
2018-03-28T16:22:29.488Z,96287.81
2018-03-28T16:24:57.761Z,96287.46
2018-03-28T16:27:26.069Z,96283.38
2018-03-28T16:29:54.354Z,96279.27
2018-03-28T16:32:22.638Z,96279.39
2018-03-28T16:34:50.937Z,96280.90
2018-03-28T16:37:19.252Z,96275.98
2018-03-28T16:39:47.540Z,96273.76
2018-03-28T16:42:15.831Z,96267.46
2018-03-28T16:44:44.122Z,96266.97
2018-03-28T16:47:12.436Z,96266.97
2018-03-28T16:49:41.462Z,96270.55
2018-03-28T16:52:09.809Z,96256.05
2018-03-28T16:54:38.107Z,96257.44
2018-03-28T16:57:06.381Z,96253.08
2018-03-28T16:59:34.675Z,96254.77
2018-03-28T17:02:02.960Z,96249.49
2018-03-28T17:04:31.248Z,96246.47
2018-03-28T17:06:59.532Z,96248.30
2018-03-28T17:09:27.822Z,96245.73
2018-03-28T17:11:56.122Z,96247.76
2018-03-28T17:14:24.473Z,96242.75
2018-03-28T17:16:52.800Z,96243.28
2018-03-28T17:19:21.053Z,96242.48
2018-03-28T17:21:50.088Z,96242.18
2018-03-28T17:24:18.377Z,96238.80
2018-03-28T17:26:46.670Z,96241.38
2018-03-28T17:29:14.961Z,96244.80
2018-03-28T17:31:43.316Z,96245.37
2018-03-28T17:34:11.645Z,96247.45
2018-03-28T17:36:40.817Z,96244.66
2018-03-28T17:39:09.140Z,96242.34
2018-03-28T17:41:37.451Z,96244.97
2018-03-28T17:44:05.749Z,96248.30
2018-03-28T17:46:34.016Z,96261.77
2018-03-28T17:49:02.319Z,96250.34
2018-03-28T17:51:30.633Z,96256.98
2018-03-28T17:54:00.588Z,96259.94
2018-03-28T17:56:28.970Z,96254.64
2018-03-28T17:58:57.281Z,96264.42
2018-03-28T18:01:25.689Z,96267.67
2018-03-28T18:03:54.357Z,96258.80
2018-03-28T18:06:22.664Z,96269.78
2018-03-28T18:08:50.968Z,96276.48
2018-03-28T18:11:19.244Z,96284.73
2018-03-28T18:13:47.566Z,96294.67
2018-03-28T18:16:15.832Z,96333.37
2018-03-28T18:18:44.156Z,96340.02
2018-03-28T18:21:12.436Z,96351.36
2018-03-28T18:23:40.727Z,96342.71
2018-03-28T18:26:09.007Z,96360.19
2018-03-28T18:28:37.340Z,96349.48
2018-03-28T18:31:05.603Z,96357.58
2018-03-28T18:33:33.849Z,96352.11
2018-03-28T18:36:02.110Z,96364.07
2018-03-28T18:38:31.135Z,96366.11
2018-03-28T18:40:59.415Z,96360.01
2018-03-28T18:43:27.686Z,96360.78
2018-03-28T18:45:56.002Z,96341.61
2018-03-28T18:48:24.296Z,96334.86
2018-03-28T18:50:52.668Z,96335.63
2018-03-28T18:53:21.711Z,96334.28
2018-03-28T18:55:50.007Z,96327.58
2018-03-28T18:58:18.298Z,96328.70
2018-03-28T19:00:46.587Z,96320.33
2018-03-28T19:03:14.904Z,96319.45
2018-03-28T19:05:43.196Z,96335.60
2018-03-28T19:08:11.464Z,96323.30
2018-03-28T19:10:40.956Z,96319.64
2018-03-28T19:13:09.234Z,96322.34
2018-03-28T19:15:37.526Z,96314.64
2018-03-28T19:18:06.548Z,96310.81
2018-03-28T19:20:34.828Z,96313.63
2018-03-28T19:23:04.652Z,96314.16
2018-03-28T19:25:32.912Z,96317.24
2018-03-28T19:28:01.237Z,96320.91
2018-03-28T19:30:29.548Z,96320.06
2018-03-28T19:32:57.930Z,96320.25
2018-03-28T19:35:26.265Z,96336.59
2018-03-28T19:37:54.547Z,96330.03
2018-03-28T19:40:22.831Z,96333.39
2018-03-28T19:42:51.101Z,96337.05
2018-03-28T19:45:19.398Z,96338.27
2018-03-28T19:47:47.677Z,96326.94
2018-03-28T19:50:16.025Z,96337.86
2018-03-28T19:52:45.695Z,96340.50
2018-03-28T19:55:13.979Z,96342.63
2018-03-28T19:57:42.348Z,96349.11
2018-03-28T20:00:11.950Z,96347.86
2018-03-28T20:02:41.096Z,96355.44
2018-03-28T20:05:09.357Z,96347.33
2018-03-28T20:07:38.400Z,96348.41
2018-03-28T20:10:06.638Z,96348.15
2018-03-28T20:12:35.657Z,96352.14
2018-03-28T20:15:04.661Z,96353.57
2018-03-28T20:17:33.812Z,96358.25
2018-03-28T20:20:02.072Z,96354.27
2018-03-28T20:22:31.205Z,96365.59
2018-03-28T20:24:59.552Z,96369.02
2018-03-28T20:27:28.597Z,96368.38
2018-03-28T20:29:56.884Z,96378.55
2018-03-28T20:32:25.263Z,96391.16
2018-03-28T20:34:53.520Z,96394.53
2018-03-28T20:37:22.637Z,96384.86
2018-03-28T20:39:51.677Z,96383.95
2018-03-28T20:42:19.980Z,96398.70
2018-03-28T20:44:48.263Z,96400.54
2018-03-28T20:47:16.545Z,96413.91
2018-03-28T20:49:44.905Z,96419.48
2018-03-28T20:52:14.831Z,96410.58
2018-03-28T20:54:43.850Z,96418.19
2018-03-28T20:57:13.599Z,96416.86
2018-03-28T20:59:41.869Z,96426.31
2018-03-28T21:02:10.198Z,96425.53
2018-03-28T21:04:38.469Z,96422.49
2018-03-28T21:07:06.714Z,96428.19
2018-03-28T21:09:35.020Z,96428.98
2018-03-28T21:12:04.143Z,96428.64
2018-03-28T21:14:32.431Z,96423.84
2018-03-28T21:17:01.538Z,96431.00
2018-03-28T21:19:31.000Z,96437.41
2018-03-28T21:24:30.431Z,96445.92
2018-03-28T21:26:58.710Z,96450.03
2018-03-28T21:29:27.062Z,96450.07
2018-03-28T21:31:56.084Z,96450.73
2018-03-28T21:34:24.424Z,96462.94
2018-03-28T21:36:52.685Z,96479.56
2018-03-28T21:39:21.058Z,96472.78
2018-03-28T21:41:49.348Z,96477.33
2018-03-28T21:44:17.612Z,96483.70
2018-03-28T21:46:46.631Z,96489.80
2018-03-28T21:49:15.691Z,96488.99
2018-03-28T21:51:44.251Z,96498.44
2018-03-28T21:54:12.553Z,96508.41
2018-03-28T21:56:40.812Z,96508.00
2018-03-28T21:59:09.949Z,96511.47
2018-03-28T22:01:38.225Z,96506.17
2018-03-28T22:04:06.491Z,96514.66
2018-03-28T22:06:36.135Z,96520.76
2018-03-28T22:09:04.399Z,96532.28
2018-03-28T22:11:33.441Z,96529.88
2018-03-28T22:14:01.723Z,96544.43
2018-03-28T22:16:30.023Z,96534.18
2018-03-28T22:18:58.302Z,96534.09
2018-03-28T22:21:26.602Z,96547.62
2018-03-28T22:23:54.882Z,96560.47
2018-03-28T22:26:23.188Z,96573.69
2018-03-28T22:28:51.447Z,96575.36
2018-03-28T22:31:20.567Z,96596.40
2018-03-28T22:33:48.812Z,96610.93
2018-03-28T22:36:17.158Z,96612.09
2018-03-28T22:38:45.432Z,96625.30
2018-03-28T22:41:13.734Z,96630.55
2018-03-28T22:43:42.716Z,96625.84
2018-03-28T22:46:11.841Z,96614.00
2018-03-28T22:48:40.101Z,96610.30
2018-03-28T22:51:08.426Z,96618.60
2018-03-28T22:53:36.728Z,96631.73
2018-03-28T22:56:04.991Z,96647.22
2018-03-28T22:58:34.117Z,96652.39
2018-03-28T23:01:02.420Z,96640.37
2018-03-28T23:03:30.693Z,96642.44
2018-03-28T23:05:58.951Z,96644.00
2018-03-28T23:08:27.289Z,96649.46
2018-03-28T23:10:55.736Z,96646.75
2018-03-28T23:13:24.811Z,96652.94
2018-03-28T23:15:53.157Z,96672.48
2018-03-28T23:18:21.454Z,96686.73
2018-03-28T23:20:49.734Z,96688.70
2018-03-28T23:23:18.036Z,96681.84
2018-03-28T23:25:46.285Z,96689.25
2018-03-28T23:28:14.738Z,96691.38
2018-03-28T23:30:42.984Z,96685.61
2018-03-28T23:33:12.064Z,96683.63
2018-03-28T23:35:40.305Z,96686.71
2018-03-28T23:38:08.608Z,96695.80
2018-03-28T23:40:36.840Z,96710.39
2018-03-28T23:43:05.862Z,96702.70
2018-03-28T23:45:34.871Z,96725.50
2018-03-28T23:48:03.907Z,96727.53
2018-03-28T23:50:32.161Z,96733.84
2018-03-28T23:53:01.198Z,96733.02
2018-03-28T23:55:29.468Z,96720.50
2018-03-28T23:57:58.527Z,96731.98
